createdAt,value
2022-12-16T04:01:53.456Z,25.77
2022-12-16T04:04:21.238Z,34.77
2022-12-16T04:07:08.379Z,24.10
2022-12-16T04:09:35.616Z,22.90
2022-12-16T04:12:21.467Z,21.80
2022-12-16T04:15:07.272Z,14.33
2022-12-16T04:17:53.295Z,13.13
2022-12-16T04:20:43.776Z,11.57
2022-12-16T04:23:30.338Z,14.77
2022-12-16T04:25:58.048Z,11.83
2022-12-16T04:28:25.270Z,12.23
2022-12-16T04:30:52.561Z,12.13
2022-12-16T04:33:38.863Z,11.03
2022-12-16T04:36:25.470Z,10.73
2022-12-16T04:39:11.062Z,11.80
2022-12-16T04:41:57.042Z,12.07
2022-12-16T04:44:42.911Z,12.63
2022-12-16T04:47:28.863Z,10.57
2022-12-16T04:50:14.727Z,10.90
2022-12-16T04:53:00.571Z,11.03
2022-12-16T04:55:46.537Z,10.20
2022-12-16T04:58:32.352Z,10.83
2022-12-16T05:01:18.215Z,10.40
2022-12-16T05:04:04.406Z,11.67
2022-12-16T05:06:50.414Z,11.27
2022-12-16T05:09:36.409Z,10.33
2022-12-16T05:12:30.069Z,10.10
2022-12-16T05:15:15.900Z,10.23
2022-12-16T05:18:01.779Z,10.57
2022-12-16T05:20:47.782Z,11.00
2022-12-16T05:23:34.004Z,10.80
2022-12-16T05:26:20.228Z,10.80
2022-12-16T05:29:06.085Z,10.17
2022-12-16T05:31:52.090Z,10.60
2022-12-16T05:34:38.092Z,12.37
2022-12-16T05:37:24.089Z,10.03
2022-12-16T05:40:09.860Z,11.57
2022-12-16T05:42:55.834Z,12.87
2022-12-16T05:45:41.857Z,12.27
2022-12-16T05:48:27.621Z,12.10
2022-12-16T05:51:13.571Z,12.33
2022-12-16T05:53:59.275Z,12.57
2022-12-16T05:56:44.888Z,12.00
2022-12-16T05:59:30.808Z,11.77
2022-12-16T06:02:16.429Z,12.13
2022-12-16T06:05:02.609Z,12.27
2022-12-16T06:07:48.390Z,11.97
2022-12-16T06:10:34.315Z,12.13
2022-12-16T06:13:20.190Z,11.30
2022-12-16T06:16:08.912Z,12.03
2022-12-16T06:18:55.350Z,13.27
2022-12-16T06:21:41.614Z,12.40
2022-12-16T06:24:27.477Z,11.90
2022-12-16T06:27:13.375Z,12.40
2022-12-16T06:29:59.042Z,14.17
2022-12-16T06:32:44.929Z,13.70
2022-12-16T06:35:30.823Z,13.20
2022-12-16T06:38:16.788Z,15.00
2022-12-16T06:41:02.723Z,15.00
2022-12-16T06:43:48.885Z,14.53
2022-12-16T06:46:34.713Z,15.03
2022-12-16T06:49:20.655Z,14.07
2022-12-16T06:52:06.416Z,16.53
2022-12-16T06:54:52.433Z,15.70
2022-12-16T06:57:38.445Z,14.23
2022-12-16T07:00:24.904Z,17.27
2022-12-16T07:03:10.860Z,15.50
2022-12-16T07:05:56.903Z,18.13
2022-12-16T07:08:42.981Z,18.37
2022-12-16T07:11:28.869Z,15.63
2022-12-16T07:14:14.656Z,18.70
2022-12-16T07:17:00.441Z,15.10
2022-12-16T07:19:46.447Z,16.03
2022-12-16T07:22:32.334Z,15.47
2022-12-16T07:25:22.463Z,16.20
2022-12-16T07:28:13.814Z,20.37
2022-12-16T07:31:02.358Z,18.97
2022-12-16T07:33:48.168Z,20.10
2022-12-16T07:36:33.748Z,18.30
2022-12-16T07:39:19.621Z,16.77
2022-12-16T07:42:05.615Z,19.00
2022-12-16T07:44:51.533Z,19.93
2022-12-16T07:47:37.371Z,17.40
2022-12-16T07:50:23.518Z,18.20
2022-12-16T07:53:19.204Z,19.10
2022-12-16T07:56:05.086Z,20.30
2022-12-16T07:58:50.967Z,18.83
2022-12-16T08:01:36.807Z,18.37
2022-12-16T08:04:22.530Z,20.10
2022-12-16T08:07:08.644Z,21.27
2022-12-16T08:09:54.602Z,20.93
2022-12-16T08:12:40.420Z,23.17
2022-12-16T08:15:26.879Z,23.37
2022-12-16T08:18:12.727Z,22.23
2022-12-16T08:20:58.643Z,22.73
2022-12-16T08:23:44.726Z,24.10
2022-12-16T08:26:30.630Z,21.83
2022-12-16T08:29:45.718Z,22.43
2022-12-16T08:32:35.389Z,22.97
2022-12-16T08:35:21.958Z,22.77
2022-12-16T08:38:13.661Z,22.63
2022-12-16T08:41:03.917Z,22.13
2022-12-16T08:43:51.777Z,24.53
2022-12-16T08:46:38.097Z,23.53
2022-12-16T08:49:24.469Z,25.20
2022-12-16T08:52:10.150Z,24.27
2022-12-16T08:54:55.916Z,24.77
2022-12-16T08:57:42.591Z,23.17
2022-12-16T09:00:29.044Z,23.80
2022-12-16T09:03:18.339Z,23.53
2022-12-16T09:06:04.328Z,24.40
2022-12-16T09:09:07.178Z,22.43
2022-12-16T09:11:52.682Z,23.30
2022-12-16T09:14:38.802Z,27.47
2022-12-16T09:17:24.776Z,26.17
2022-12-16T09:20:10.483Z,26.40
2022-12-16T09:22:56.559Z,25.83
2022-12-16T09:25:42.551Z,26.43
2022-12-16T09:28:28.403Z,25.97
2022-12-16T09:31:14.343Z,24.80
2022-12-16T09:34:00.202Z,28.30
2022-12-16T09:36:46.079Z,26.77
2022-12-16T09:39:32.052Z,24.67
2022-12-16T09:42:55.656Z,24.07
2022-12-16T09:46:10.867Z,22.67
2022-12-16T09:49:04.880Z,26.63
2022-12-16T09:51:52.359Z,25.23
2022-12-16T09:54:42.398Z,28.00
2022-12-16T09:57:28.432Z,28.17
2022-12-16T10:00:19.743Z,26.73
2022-12-16T10:03:08.700Z,25.70
2022-12-16T10:06:24.946Z,25.70
2022-12-16T10:09:45.241Z,25.80
2022-12-16T10:12:36.789Z,29.67
2022-12-16T10:15:34.579Z,114.07
2022-12-16T10:18:24.179Z,41.33
2022-12-16T10:21:13.334Z,39.90
2022-12-16T10:24:18.124Z,44.27
2022-12-16T10:27:06.945Z,41.30
2022-12-16T10:29:58.753Z,41.53
2022-12-16T10:33:04.042Z,45.23
2022-12-16T10:35:56.377Z,42.60
2022-12-16T10:38:56.608Z,42.93
2022-12-16T10:41:46.814Z,37.63
2022-12-16T10:44:36.985Z,41.93
2022-12-16T10:47:22.713Z,45.57
2022-12-16T10:50:12.834Z,49.87
2022-12-16T10:53:20.137Z,46.00
2022-12-16T10:56:44.009Z,42.27
2022-12-16T10:59:30.598Z,45.77
2022-12-16T11:02:20.091Z,41.53
2022-12-16T11:05:07.243Z,42.03
2022-12-16T11:08:11.755Z,44.47
2022-12-16T11:11:00.315Z,43.30
2022-12-16T11:13:55.680Z,48.20
2022-12-16T11:16:47.142Z,38.17
2022-12-16T11:19:47.255Z,35.37
2022-12-16T11:22:38.248Z,37.83
2022-12-16T11:25:39.922Z,45.33
2022-12-16T11:28:42.215Z,41.27
2022-12-16T11:31:33.521Z,43.03
2022-12-16T11:34:21.345Z,39.20
2022-12-16T11:37:10.892Z,38.37
2022-12-16T11:39:58.126Z,53.20
2022-12-16T11:42:50.543Z,50.03
2022-12-16T11:45:39.145Z,45.63
2022-12-16T11:48:47.493Z,58.33
2022-12-16T11:51:34.504Z,54.13
2022-12-16T11:54:48.934Z,62.30
2022-12-16T11:57:53.035Z,48.27
2022-12-16T12:00:38.792Z,53.70
2022-12-16T12:03:35.750Z,54.90
2022-12-16T12:06:24.661Z,56.13
2022-12-16T12:09:18.240Z,57.57
2022-12-16T12:12:11.014Z,57.10
2022-12-16T12:15:39.282Z,57.17
2022-12-16T12:18:35.354Z,59.23
2022-12-16T12:21:34.739Z,50.77
2022-12-16T12:24:30.055Z,51.00
2022-12-16T12:27:32.801Z,55.37
2022-12-16T12:30:35.298Z,57.30
2022-12-16T12:33:36.695Z,55.50
2022-12-16T12:36:45.164Z,56.33
2022-12-16T12:39:59.440Z,58.57
2022-12-16T12:43:05.448Z,57.13
2022-12-16T12:46:05.398Z,57.27
2022-12-16T12:48:57.787Z,57.57
2022-12-16T12:52:04.057Z,63.00
2022-12-16T12:54:59.810Z,60.77
2022-12-16T12:57:48.318Z,56.23
2022-12-16T13:00:36.327Z,58.00
2022-12-16T13:04:04.014Z,58.40
2022-12-16T13:06:50.601Z,56.80
2022-12-16T13:09:50.282Z,73.93
2022-12-16T13:12:42.607Z,58.23
2022-12-16T13:15:37.463Z,51.97
2022-12-16T13:18:23.408Z,58.63
2022-12-16T13:21:10.119Z,58.07
2022-12-16T13:23:58.620Z,57.13
2022-12-16T13:26:46.971Z,53.47
2022-12-16T13:29:35.527Z,63.87
2022-12-16T13:32:34.885Z,56.97
2022-12-16T13:35:35.924Z,54.77
2022-12-16T13:38:36.750Z,53.83
2022-12-16T13:41:25.341Z,65.67
2022-12-16T13:44:18.988Z,58.57
2022-12-16T13:47:10.236Z,53.73
2022-12-16T13:49:55.926Z,55.43
2022-12-16T13:52:44.971Z,58.50
2022-12-16T13:55:34.529Z,60.97
2022-12-16T13:58:31.023Z,74.10
2022-12-16T14:01:24.133Z,58.43
2022-12-16T14:04:11.682Z,57.37
2022-12-16T14:07:00.877Z,56.20
2022-12-16T14:09:56.812Z,52.07
2022-12-16T14:13:17.412Z,58.70
2022-12-16T14:16:28.959Z,60.53
2022-12-16T14:19:44.033Z,63.27
2022-12-16T14:22:44.763Z,63.57
2022-12-16T14:25:39.912Z,60.33
2022-12-16T14:28:47.814Z,62.80
2022-12-16T14:31:55.135Z,60.37
2022-12-16T14:34:47.190Z,57.40
2022-12-16T14:37:32.745Z,63.70
2022-12-16T14:40:18.752Z,59.40
2022-12-16T14:43:09.867Z,63.57
2022-12-16T14:46:06.273Z,60.50
2022-12-16T14:48:57.747Z,63.90
2022-12-16T14:51:49.448Z,63.43
2022-12-16T14:54:54.448Z,63.37
2022-12-16T14:57:48.569Z,67.57
2022-12-16T15:00:35.978Z,58.83
2022-12-16T15:03:41.257Z,59.77
2022-12-16T15:06:38.989Z,55.13
2022-12-16T15:09:27.450Z,69.57
2022-12-16T15:12:14.424Z,64.60
2022-12-16T15:15:01.155Z,69.77
2022-12-16T15:18:06.568Z,70.53
2022-12-16T15:20:55.925Z,90.10
2022-12-16T15:23:48.886Z,59.07
2022-12-16T15:26:43.771Z,66.70
2022-12-16T15:29:51.360Z,60.73
2022-12-16T15:32:46.110Z,66.17
2022-12-16T15:35:49.008Z,63.77
2022-12-16T15:38:34.956Z,69.70
2022-12-16T15:41:23.218Z,62.00
2022-12-16T15:44:10.287Z,63.97
2022-12-16T15:46:56.411Z,64.00
2022-12-16T15:49:51.462Z,63.40
2022-12-16T15:52:51.629Z,72.40
2022-12-16T15:55:56.009Z,64.20
2022-12-16T15:58:47.581Z,65.27
2022-12-16T16:01:39.949Z,79.80
2022-12-16T16:04:45.934Z,60.47
2022-12-16T16:07:40.525Z,60.87
2022-12-16T16:10:41.521Z,61.00
2022-12-16T16:13:28.263Z,62.20
2022-12-16T16:16:14.936Z,87.60
2022-12-16T16:19:01.343Z,69.10
2022-12-16T16:21:48.000Z,73.97
2022-12-16T16:24:34.420Z,72.20
2022-12-16T16:27:21.447Z,72.13
2022-12-16T16:30:07.269Z,89.10
2022-12-16T16:32:53.406Z,66.03
2022-12-16T16:35:39.395Z,86.23
2022-12-16T16:38:25.299Z,94.77
2022-12-16T16:41:21.801Z,83.13
2022-12-16T16:44:07.706Z,72.33
2022-12-16T16:46:59.246Z,74.27
2022-12-16T16:49:51.530Z,85.73
2022-12-16T16:52:40.169Z,71.47
2022-12-16T16:55:31.678Z,68.63
2022-12-16T16:58:17.530Z,87.60
2022-12-16T17:01:03.867Z,68.97
2022-12-16T17:03:49.968Z,83.23
2022-12-16T17:06:36.046Z,66.40
2022-12-16T17:09:21.791Z,70.07
2022-12-16T17:12:07.428Z,89.47
2022-12-16T17:14:53.501Z,65.57
2022-12-16T17:17:39.472Z,85.63
2022-12-16T17:20:27.973Z,72.67
2022-12-16T17:23:13.796Z,83.63
2022-12-16T17:25:59.859Z,56.47
2022-12-16T17:28:45.886Z,86.43
2022-12-16T17:31:31.800Z,60.53
2022-12-16T17:34:17.767Z,76.53
2022-12-16T17:37:03.709Z,76.87
2022-12-16T17:39:49.655Z,84.90
2022-12-16T17:42:35.773Z,88.63
2022-12-16T17:45:21.481Z,75.37
2022-12-16T17:48:07.302Z,78.87
2022-12-16T17:50:53.508Z,91.20
2022-12-16T17:53:39.499Z,71.10
2022-12-16T17:56:25.577Z,61.80
2022-12-16T17:59:12.103Z,88.37
2022-12-16T18:01:58.135Z,73.03
2022-12-16T18:04:44.361Z,75.90
2022-12-16T18:07:30.354Z,66.57
2022-12-16T18:10:16.403Z,74.77
2022-12-16T18:13:02.426Z,89.67
2022-12-16T18:15:48.453Z,73.53
2022-12-16T18:18:34.493Z,71.37
2022-12-16T18:21:30.670Z,71.60
2022-12-16T18:24:16.470Z,76.23
2022-12-16T18:27:02.235Z,77.13
2022-12-16T18:29:48.347Z,68.70
2022-12-16T18:32:35.431Z,67.77
2022-12-16T18:35:22.105Z,61.47
2022-12-16T18:38:12.146Z,95.33
2022-12-16T18:41:00.855Z,77.57
2022-12-16T18:43:46.977Z,82.13
2022-12-16T18:46:32.867Z,70.40
2022-12-16T18:49:18.876Z,61.43
2022-12-16T18:52:04.882Z,81.43
2022-12-16T18:54:50.864Z,66.50
2022-12-16T18:57:39.873Z,67.57
2022-12-16T19:00:26.712Z,71.87
2022-12-16T19:03:12.755Z,66.70
2022-12-16T19:05:58.723Z,81.87
2022-12-16T19:08:44.799Z,64.80
2022-12-16T19:11:30.671Z,78.27
2022-12-16T19:14:16.807Z,71.53
2022-12-16T19:17:03.933Z,73.60
2022-12-16T19:19:49.881Z,61.87
2022-12-16T19:22:35.896Z,65.33
2022-12-16T19:25:21.824Z,73.97
2022-12-16T19:28:07.800Z,74.30
2022-12-16T19:30:53.951Z,71.77
2022-12-16T19:33:42.242Z,66.93
2022-12-16T19:36:28.102Z,71.90
2022-12-16T19:39:14.117Z,63.60
2022-12-16T19:41:59.628Z,67.50
2022-12-16T19:44:45.600Z,73.67
2022-12-16T19:47:31.621Z,78.53
2022-12-16T19:50:17.547Z,77.27
2022-12-16T19:53:03.466Z,67.63
2022-12-16T19:55:49.449Z,78.97
2022-12-16T19:58:41.557Z,76.23
2022-12-16T20:01:28.317Z,71.80
2022-12-16T20:04:14.646Z,75.40
2022-12-16T20:07:00.589Z,70.70
2022-12-16T20:10:03.357Z,65.67
2022-12-16T20:12:49.589Z,68.20
2022-12-16T20:15:35.481Z,71.17
2022-12-16T20:18:24.160Z,61.17
2022-12-16T20:21:10.257Z,77.87
2022-12-16T20:23:56.742Z,71.50
2022-12-16T20:26:42.730Z,65.23
2022-12-16T20:29:28.729Z,83.47
2022-12-16T20:32:14.490Z,57.80
2022-12-16T20:35:00.364Z,72.53
2022-12-16T20:37:46.246Z,56.90
2022-12-16T20:40:32.363Z,61.83
2022-12-16T20:43:18.504Z,68.10
2022-12-16T20:46:04.538Z,63.00
2022-12-16T20:48:50.406Z,83.07
2022-12-16T20:51:36.479Z,66.80
2022-12-16T20:54:22.355Z,64.63
2022-12-16T20:57:13.016Z,69.60
2022-12-16T20:59:59.147Z,64.37
2022-12-16T21:02:45.264Z,55.53
2022-12-16T21:05:31.386Z,61.17
2022-12-16T21:08:17.395Z,70.77
2022-12-16T21:11:13.938Z,59.50
2022-12-16T21:13:59.823Z,64.37
2022-12-16T21:16:45.734Z,58.23
2022-12-16T21:19:33.711Z,52.10
2022-12-16T21:22:20.182Z,64.40
2022-12-16T21:25:06.023Z,61.07
2022-12-16T21:27:52.079Z,67.70
2022-12-16T21:30:38.836Z,65.20
2022-12-16T21:33:24.426Z,61.47
2022-12-16T21:36:11.448Z,63.67
2022-12-16T21:39:08.097Z,67.33
2022-12-16T21:41:54.041Z,56.10
2022-12-16T21:44:42.029Z,57.10
2022-12-16T21:47:27.825Z,57.67
2022-12-16T21:50:13.878Z,73.67
2022-12-16T21:53:00.478Z,61.20
2022-12-16T21:55:46.685Z,81.80
2022-12-16T21:58:32.967Z,53.23
